sensor_id;sensor_type;location;lat;lon;timestamp;temperature;humidity
48007;DHT22;33771;48.180;11.400;2024-02-16T00:00:24;4.30;99.90
48007;DHT22;33771;48.180;11.400;2024-02-16T00:02:50;4.30;99.90
48007;DHT22;33771;48.180;11.400;2024-02-16T00:05:15;4.20;99.90
48007;DHT22;33771;48.180;11.400;2024-02-16T00:07:41;4.20;99.90
48007;DHT22;33771;48.180;11.400;2024-02-16T00:10:08;4.10;99.90
48007;DHT22;33771;48.180;11.400;2024-02-16T00:12:34;4.00;99.90
48007;DHT22;33771;48.180;11.400;2024-02-16T00:15:00;4.00;99.90
48007;DHT22;33771;48.180;11.400;2024-02-16T00:17:26;4.00;99.90
48007;DHT22;33771;48.180;11.400;2024-02-16T00:19:53;4.00;99.90
48007;DHT22;33771;48.180;11.400;2024-02-16T00:22:19;3.90;99.90
48007;DHT22;33771;48.180;11.400;2024-02-16T00:24:44;3.90;99.90
48007;DHT22;33771;48.180;11.400;2024-02-16T00:27:10;3.90;99.90
48007;DHT22;33771;48.180;11.400;2024-02-16T00:29:36;3.80;99.90
48007;DHT22;33771;48.180;11.400;2024-02-16T00:32:04;3.80;99.90
48007;DHT22;33771;48.180;11.400;2024-02-16T00:34:29;3.80;99.90
48007;DHT22;33771;48.180;11.400;2024-02-16T00:36:55;3.80;99.90
48007;DHT22;33771;48.180;11.400;2024-02-16T00:39:20;3.80;99.90
48007;DHT22;33771;48.180;11.400;2024-02-16T00:41:47;3.80;99.90
48007;DHT22;33771;48.180;11.400;2024-02-16T00:44:12;3.80;99.90
48007;DHT22;33771;48.180;11.400;2024-02-16T00:46:38;3.80;99.90
48007;DHT22;33771;48.180;11.400;2024-02-16T00:49:03;3.80;99.90
48007;DHT22;33771;48.180;11.400;2024-02-16T00:51:29;3.80;99.90
48007;DHT22;33771;48.180;11.400;2024-02-16T00:53:55;3.80;99.90
48007;DHT22;33771;48.180;11.400;2024-02-16T00:56:21;3.80;99.90
48007;DHT22;33771;48.180;11.400;2024-02-16T00:58:46;3.80;99.90
48007;DHT22;33771;48.180;11.400;2024-02-16T01:01:12;3.80;99.90
48007;DHT22;33771;48.180;11.400;2024-02-16T01:03:40;3.80;99.90
48007;DHT22;33771;48.180;11.400;2024-02-16T01:06:06;3.80;99.90
48007;DHT22;33771;48.180;11.400;2024-02-16T01:08:34;3.90;99.90
48007;DHT22;33771;48.180;11.400;2024-02-16T01:10:59;3.90;99.90
48007;DHT22;33771;48.180;11.400;2024-02-16T01:13:25;3.90;99.90
48007;DHT22;33771;48.180;11.400;2024-02-16T01:15:51;3.90;99.90
48007;DHT22;33771;48.180;11.400;2024-02-16T01:18:17;4.00;99.90
48007;DHT22;33771;48.180;11.400;2024-02-16T01:20:43;4.00;99.90
48007;DHT22;33771;48.180;11.400;2024-02-16T01:23:08;4.00;99.90
48007;DHT22;33771;48.180;11.400;2024-02-16T01:25:34;3.90;99.90
48007;DHT22;33771;48.180;11.400;2024-02-16T01:27:59;4.00;99.90
48007;DHT22;33771;48.180;11.400;2024-02-16T01:30:25;3.90;99.90
48007;DHT22;33771;48.180;11.400;2024-02-16T01:32:50;4.00;99.90
48007;DHT22;33771;48.180;11.400;2024-02-16T01:35:16;4.00;99.90
48007;DHT22;33771;48.180;11.400;2024-02-16T01:37:42;4.00;99.90
48007;DHT22;33771;48.180;11.400;2024-02-16T01:40:10;4.00;99.90
48007;DHT22;33771;48.180;11.400;2024-02-16T01:42:40;4.00;99.90
48007;DHT22;33771;48.180;11.400;2024-02-16T01:45:07;4.10;99.90
48007;DHT22;33771;48.180;11.400;2024-02-16T01:47:35;4.10;99.90
48007;DHT22;33771;48.180;11.400;2024-02-16T01:50:01;4.00;99.90
48007;DHT22;33771;48.180;11.400;2024-02-16T01:52:28;4.00;99.90
48007;DHT22;33771;48.180;11.400;2024-02-16T01:54:53;4.00;99.90
48007;DHT22;33771;48.180;11.400;2024-02-16T01:57:19;4.00;99.90
48007;DHT22;33771;48.180;11.400;2024-02-16T01:59:45;4.00;99.90
48007;DHT22;33771;48.180;11.400;2024-02-16T02:02:11;4.00;99.90
48007;DHT22;33771;48.180;11.400;2024-02-16T02:04:37;4.00;99.90
48007;DHT22;33771;48.180;11.400;2024-02-16T02:07:11;4.00;99.90
48007;DHT22;33771;48.180;11.400;2024-02-16T02:09:37;3.90;99.90
48007;DHT22;33771;48.180;11.400;2024-02-16T02:12:03;3.90;99.90
48007;DHT22;33771;48.180;11.400;2024-02-16T02:14:29;3.90;99.90
48007;DHT22;33771;48.180;11.400;2024-02-16T02:16:54;3.90;99.90
48007;DHT22;33771;48.180;11.400;2024-02-16T02:19:20;3.90;99.90
48007;DHT22;33771;48.180;11.400;2024-02-16T02:21:45;3.90;99.90
48007;DHT22;33771;48.180;11.400;2024-02-16T02:24:11;3.90;99.90
48007;DHT22;33771;48.180;11.400;2024-02-16T02:26:37;3.90;99.90
48007;DHT22;33771;48.180;11.400;2024-02-16T02:29:03;3.90;99.90
48007;DHT22;33771;48.180;11.400;2024-02-16T02:31:28;3.80;99.90
48007;DHT22;33771;48.180;11.400;2024-02-16T02:33:54;3.80;99.90
48007;DHT22;33771;48.180;11.400;2024-02-16T02:36:20;3.80;99.90
48007;DHT22;33771;48.180;11.400;2024-02-16T02:38:45;3.80;99.90
48007;DHT22;33771;48.180;11.400;2024-02-16T02:41:11;3.80;99.90
48007;DHT22;33771;48.180;11.400;2024-02-16T02:43:36;3.90;99.90
48007;DHT22;33771;48.180;11.400;2024-02-16T02:46:02;3.90;99.90
48007;DHT22;33771;48.180;11.400;2024-02-16T02:48:27;3.90;99.90
48007;DHT22;33771;48.180;11.400;2024-02-16T02:50:53;3.90;99.90
48007;DHT22;33771;48.180;11.400;2024-02-16T02:53:18;3.90;99.90
48007;DHT22;33771;48.180;11.400;2024-02-16T02:55:44;3.90;99.90
48007;DHT22;33771;48.180;11.400;2024-02-16T02:58:09;3.90;99.90
48007;DHT22;33771;48.180;11.400;2024-02-16T03:00:35;3.90;99.90
48007;DHT22;33771;48.180;11.400;2024-02-16T03:03:00;3.90;99.90
48007;DHT22;33771;48.180;11.400;2024-02-16T03:05:26;3.90;99.90
48007;DHT22;33771;48.180;11.400;2024-02-16T03:07:52;4.00;99.90
48007;DHT22;33771;48.180;11.400;2024-02-16T03:10:18;4.00;99.90
48007;DHT22;33771;48.180;11.400;2024-02-16T03:12:47;4.00;99.90
48007;DHT22;33771;48.180;11.400;2024-02-16T03:15:15;4.00;99.90
48007;DHT22;33771;48.180;11.400;2024-02-16T03:17:41;4.00;99.90
48007;DHT22;33771;48.180;11.400;2024-02-16T03:20:07;4.10;99.90
48007;DHT22;33771;48.180;11.400;2024-02-16T03:22:33;4.10;99.90
48007;DHT22;33771;48.180;11.400;2024-02-16T03:24:58;4.10;99.90
48007;DHT22;33771;48.180;11.400;2024-02-16T03:27:24;4.10;99.90
48007;DHT22;33771;48.180;11.400;2024-02-16T03:29:50;4.10;99.90
48007;DHT22;33771;48.180;11.400;2024-02-16T03:32:15;4.10;99.90
48007;DHT22;33771;48.180;11.400;2024-02-16T03:34:41;4.10;99.90
48007;DHT22;33771;48.180;11.400;2024-02-16T03:37:06;4.20;99.90
48007;DHT22;33771;48.180;11.400;2024-02-16T03:39:32;4.20;99.90
48007;DHT22;33771;48.180;11.400;2024-02-16T03:41:57;4.20;99.90
48007;DHT22;33771;48.180;11.400;2024-02-16T03:44:23;4.20;99.90
48007;DHT22;33771;48.180;11.400;2024-02-16T03:46:48;4.20;99.90
48007;DHT22;33771;48.180;11.400;2024-02-16T03:49:14;4.30;99.90
48007;DHT22;33771;48.180;11.400;2024-02-16T03:51:39;4.30;99.90
48007;DHT22;33771;48.180;11.400;2024-02-16T03:54:05;4.30;99.90
48007;DHT22;33771;48.180;11.400;2024-02-16T03:56:31;4.20;99.90
48007;DHT22;33771;48.180;11.400;2024-02-16T03:58:56;4.20;99.90
48007;DHT22;33771;48.180;11.400;2024-02-16T04:01:22;4.10;99.90
48007;DHT22;33771;48.180;11.400;2024-02-16T04:03:47;4.10;99.90
48007;DHT22;33771;48.180;11.400;2024-02-16T04:06:13;4.10;99.90
48007;DHT22;33771;48.180;11.400;2024-02-16T04:08:38;4.10;99.90
48007;DHT22;33771;48.180;11.400;2024-02-16T04:11:04;4.10;99.90
48007;DHT22;33771;48.180;11.400;2024-02-16T04:13:30;4.10;99.90
48007;DHT22;33771;48.180;11.400;2024-02-16T04:15:57;4.10;99.90
48007;DHT22;33771;48.180;11.400;2024-02-16T04:18:23;4.10;99.90
48007;DHT22;33771;48.180;11.400;2024-02-16T04:20:49;4.10;99.90
48007;DHT22;33771;48.180;11.400;2024-02-16T04:23:14;4.10;99.90
48007;DHT22;33771;48.180;11.400;2024-02-16T04:25:40;4.20;99.90
48007;DHT22;33771;48.180;11.400;2024-02-16T04:28:05;4.20;99.90
48007;DHT22;33771;48.180;11.400;2024-02-16T04:30:31;4.20;99.90
48007;DHT22;33771;48.180;11.400;2024-02-16T04:32:56;4.20;99.90
48007;DHT22;33771;48.180;11.400;2024-02-16T04:35:22;4.30;99.90
48007;DHT22;33771;48.180;11.400;2024-02-16T04:37:48;4.30;99.90
48007;DHT22;33771;48.180;11.400;2024-02-16T04:40:13;4.30;99.90
48007;DHT22;33771;48.180;11.400;2024-02-16T04:42:39;4.30;99.90
48007;DHT22;33771;48.180;11.400;2024-02-16T04:45:11;4.20;99.90
48007;DHT22;33771;48.180;11.400;2024-02-16T04:47:37;4.20;99.90
48007;DHT22;33771;48.180;11.400;2024-02-16T04:50:02;4.20;99.90
48007;DHT22;33771;48.180;11.400;2024-02-16T04:52:28;4.30;99.90
48007;DHT22;33771;48.180;11.400;2024-02-16T04:54:54;4.30;99.90
48007;DHT22;33771;48.180;11.400;2024-02-16T04:57:19;4.30;99.90
48007;DHT22;33771;48.180;11.400;2024-02-16T04:59:46;4.30;99.90
48007;DHT22;33771;48.180;11.400;2024-02-16T05:02:11;4.40;99.90
48007;DHT22;33771;48.180;11.400;2024-02-16T05:04:37;4.40;99.90
48007;DHT22;33771;48.180;11.400;2024-02-16T05:07:04;4.50;99.90
48007;DHT22;33771;48.180;11.400;2024-02-16T05:09:32;4.50;99.90
48007;DHT22;33771;48.180;11.400;2024-02-16T05:11:58;4.50;99.90
48007;DHT22;33771;48.180;11.400;2024-02-16T05:14:23;4.50;99.90
48007;DHT22;33771;48.180;11.400;2024-02-16T05:16:49;4.50;99.90
48007;DHT22;33771;48.180;11.400;2024-02-16T05:19:16;4.50;99.90
48007;DHT22;33771;48.180;11.400;2024-02-16T05:21:41;4.60;99.90
48007;DHT22;33771;48.180;11.400;2024-02-16T05:24:07;4.50;99.90
48007;DHT22;33771;48.180;11.400;2024-02-16T05:26:33;4.50;99.90
48007;DHT22;33771;48.180;11.400;2024-02-16T05:28:59;4.50;99.90
48007;DHT22;33771;48.180;11.400;2024-02-16T05:31:25;4.50;99.90
48007;DHT22;33771;48.180;11.400;2024-02-16T05:33:51;4.50;99.90
48007;DHT22;33771;48.180;11.400;2024-02-16T05:36:21;4.50;99.90
48007;DHT22;33771;48.180;11.400;2024-02-16T05:38:50;4.50;99.90
48007;DHT22;33771;48.180;11.400;2024-02-16T05:41:17;4.50;99.90
48007;DHT22;33771;48.180;11.400;2024-02-16T05:43:45;4.50;99.90
48007;DHT22;33771;48.180;11.400;2024-02-16T05:46:15;4.50;99.90
48007;DHT22;33771;48.180;11.400;2024-02-16T05:48:41;4.50;99.90
48007;DHT22;33771;48.180;11.400;2024-02-16T05:51:07;4.50;99.90
48007;DHT22;33771;48.180;11.400;2024-02-16T05:53:33;4.50;99.90
48007;DHT22;33771;48.180;11.400;2024-02-16T05:55:59;4.50;99.90
48007;DHT22;33771;48.180;11.400;2024-02-16T05:58:25;4.60;99.90
48007;DHT22;33771;48.180;11.400;2024-02-16T06:00:50;4.60;99.90
48007;DHT22;33771;48.180;11.400;2024-02-16T06:03:16;4.60;99.90
48007;DHT22;33771;48.180;11.400;2024-02-16T06:05:42;4.60;99.90
48007;DHT22;33771;48.180;11.400;2024-02-16T06:08:11;4.70;99.90
48007;DHT22;33771;48.180;11.400;2024-02-16T06:10:36;4.70;99.90
48007;DHT22;33771;48.180;11.400;2024-02-16T06:13:02;4.70;99.90
48007;DHT22;33771;48.180;11.400;2024-02-16T06:15:28;4.70;99.90
48007;DHT22;33771;48.180;11.400;2024-02-16T06:17:53;4.80;99.90
48007;DHT22;33771;48.180;11.400;2024-02-16T06:20:19;4.80;99.90
48007;DHT22;33771;48.180;11.400;2024-02-16T06:22:45;4.80;99.90
48007;DHT22;33771;48.180;11.400;2024-02-16T06:25:10;4.90;99.90
48007;DHT22;33771;48.180;11.400;2024-02-16T06:27:36;4.90;99.90
48007;DHT22;33771;48.180;11.400;2024-02-16T06:30:03;5.00;99.90
48007;DHT22;33771;48.180;11.400;2024-02-16T06:32:33;5.00;99.90
48007;DHT22;33771;48.180;11.400;2024-02-16T06:34:58;5.00;99.90
48007;DHT22;33771;48.180;11.400;2024-02-16T06:37:24;5.00;99.90
48007;DHT22;33771;48.180;11.400;2024-02-16T06:39:50;5.10;99.90
48007;DHT22;33771;48.180;11.400;2024-02-16T06:42:15;5.10;99.90
48007;DHT22;33771;48.180;11.400;2024-02-16T06:44:41;5.10;99.90
48007;DHT22;33771;48.180;11.400;2024-02-16T06:47:06;5.20;99.90
48007;DHT22;33771;48.180;11.400;2024-02-16T06:49:32;5.20;99.90
48007;DHT22;33771;48.180;11.400;2024-02-16T06:51:57;5.30;99.90
48007;DHT22;33771;48.180;11.400;2024-02-16T06:54:23;5.30;99.90
48007;DHT22;33771;48.180;11.400;2024-02-16T06:56:52;5.40;99.90
48007;DHT22;33771;48.180;11.400;2024-02-16T06:59:17;5.40;99.90
48007;DHT22;33771;48.180;11.400;2024-02-16T07:01:43;5.50;99.90
48007;DHT22;33771;48.180;11.400;2024-02-16T07:04:09;5.50;99.90
48007;DHT22;33771;48.180;11.400;2024-02-16T07:06:35;5.60;99.90
48007;DHT22;33771;48.180;11.400;2024-02-16T07:09:01;5.60;99.90
48007;DHT22;33771;48.180;11.400;2024-02-16T07:11:27;5.70;99.90
48007;DHT22;33771;48.180;11.400;2024-02-16T07:13:53;5.80;99.90
48007;DHT22;33771;48.180;11.400;2024-02-16T07:16:19;5.80;99.90
48007;DHT22;33771;48.180;11.400;2024-02-16T07:18:45;5.90;99.90
48007;DHT22;33771;48.180;11.400;2024-02-16T07:21:11;6.00;99.90
48007;DHT22;33771;48.180;11.400;2024-02-16T07:23:37;6.00;99.90
48007;DHT22;33771;48.180;11.400;2024-02-16T07:26:03;6.10;99.90
48007;DHT22;33771;48.180;11.400;2024-02-16T07:28:29;6.10;99.90
48007;DHT22;33771;48.180;11.400;2024-02-16T07:30:55;6.20;99.90
48007;DHT22;33771;48.180;11.400;2024-02-16T07:33:20;6.20;99.90
48007;DHT22;33771;48.180;11.400;2024-02-16T07:35:47;6.30;99.90
48007;DHT22;33771;48.180;11.400;2024-02-16T07:38:12;6.30;99.90
48007;DHT22;33771;48.180;11.400;2024-02-16T07:40:38;6.40;99.90
48007;DHT22;33771;48.180;11.400;2024-02-16T07:43:03;6.40;99.90
48007;DHT22;33771;48.180;11.400;2024-02-16T07:45:30;6.50;99.90
48007;DHT22;33771;48.180;11.400;2024-02-16T07:47:56;6.50;99.90
48007;DHT22;33771;48.180;11.400;2024-02-16T07:50:22;6.60;99.90
48007;DHT22;33771;48.180;11.400;2024-02-16T07:52:51;6.60;99.90
48007;DHT22;33771;48.180;11.400;2024-02-16T07:55:17;6.70;99.90
48007;DHT22;33771;48.180;11.400;2024-02-16T07:57:44;6.70;99.90
48007;DHT22;33771;48.180;11.400;2024-02-16T08:00:10;6.80;99.90
48007;DHT22;33771;48.180;11.400;2024-02-16T08:02:36;6.80;99.90
48007;DHT22;33771;48.180;11.400;2024-02-16T08:05:02;6.90;99.90
48007;DHT22;33771;48.180;11.400;2024-02-16T08:07:28;6.90;99.90
48007;DHT22;33771;48.180;11.400;2024-02-16T08:09:53;7.00;99.90
48007;DHT22;33771;48.180;11.400;2024-02-16T08:12:19;7.00;99.90
48007;DHT22;33771;48.180;11.400;2024-02-16T08:14:44;7.10;99.90
48007;DHT22;33771;48.180;11.400;2024-02-16T08:17:13;7.10;99.90
48007;DHT22;33771;48.180;11.400;2024-02-16T08:19:38;7.20;99.90
48007;DHT22;33771;48.180;11.400;2024-02-16T08:22:07;7.20;99.90
48007;DHT22;33771;48.180;11.400;2024-02-16T08:24:34;7.30;99.90
48007;DHT22;33771;48.180;11.400;2024-02-16T08:26:59;7.40;99.90
48007;DHT22;33771;48.180;11.400;2024-02-16T08:29:25;7.50;99.90
48007;DHT22;33771;48.180;11.400;2024-02-16T08:31:51;7.60;99.90
48007;DHT22;33771;48.180;11.400;2024-02-16T08:34:17;7.60;99.90
48007;DHT22;33771;48.180;11.400;2024-02-16T08:36:47;7.70;99.90
48007;DHT22;33771;48.180;11.400;2024-02-16T08:39:13;7.80;99.90
48007;DHT22;33771;48.180;11.400;2024-02-16T08:41:39;7.90;99.90
48007;DHT22;33771;48.180;11.400;2024-02-16T08:44:06;8.00;99.90
48007;DHT22;33771;48.180;11.400;2024-02-16T08:46:34;8.20;99.90
48007;DHT22;33771;48.180;11.400;2024-02-16T08:49:00;8.30;99.90
48007;DHT22;33771;48.180;11.400;2024-02-16T08:51:26;8.40;99.90
48007;DHT22;33771;48.180;11.400;2024-02-16T08:53:51;8.60;99.90
48007;DHT22;33771;48.180;11.400;2024-02-16T08:56:17;8.70;99.90
48007;DHT22;33771;48.180;11.400;2024-02-16T08:58:42;8.90;99.90
48007;DHT22;33771;48.180;11.400;2024-02-16T09:01:08;9.00;99.90
48007;DHT22;33771;48.180;11.400;2024-02-16T09:03:33;9.10;99.90
48007;DHT22;33771;48.180;11.400;2024-02-16T09:06:03;9.20;99.90
48007;DHT22;33771;48.180;11.400;2024-02-16T09:08:29;9.30;99.90
48007;DHT22;33771;48.180;11.400;2024-02-16T09:10:59;9.40;99.90
48007;DHT22;33771;48.180;11.400;2024-02-16T09:13:25;9.50;99.90
48007;DHT22;33771;48.180;11.400;2024-02-16T09:15:51;9.50;99.90
48007;DHT22;33771;48.180;11.400;2024-02-16T09:18:19;9.60;99.90
48007;DHT22;33771;48.180;11.400;2024-02-16T09:20:44;9.60;99.90
48007;DHT22;33771;48.180;11.400;2024-02-16T09:23:10;9.70;99.90
48007;DHT22;33771;48.180;11.400;2024-02-16T09:25:35;9.80;99.90
48007;DHT22;33771;48.180;11.400;2024-02-16T09:28:02;9.90;99.90
48007;DHT22;33771;48.180;11.400;2024-02-16T09:30:27;10.10;99.90
48007;DHT22;33771;48.180;11.400;2024-02-16T09:32:53;10.10;99.90
48007;DHT22;33771;48.180;11.400;2024-02-16T09:35:19;10.20;99.90
48007;DHT22;33771;48.180;11.400;2024-02-16T09:37:45;10.30;99.90
48007;DHT22;33771;48.180;11.400;2024-02-16T09:40:12;10.40;99.90
48007;DHT22;33771;48.180;11.400;2024-02-16T09:42:38;10.50;99.90
48007;DHT22;33771;48.180;11.400;2024-02-16T09:45:06;10.70;99.90
48007;DHT22;33771;48.180;11.400;2024-02-16T09:47:33;10.80;99.90
48007;DHT22;33771;48.180;11.400;2024-02-16T09:50:00;11.00;99.90
48007;DHT22;33771;48.180;11.400;2024-02-16T09:52:26;11.20;99.90
48007;DHT22;33771;48.180;11.400;2024-02-16T09:54:52;11.30;99.90
48007;DHT22;33771;48.180;11.400;2024-02-16T09:57:18;11.50;99.90
48007;DHT22;33771;48.180;11.400;2024-02-16T09:59:44;11.70;99.90
48007;DHT22;33771;48.180;11.400;2024-02-16T10:02:09;11.90;99.90
48007;DHT22;33771;48.180;11.400;2024-02-16T10:04:35;12.10;99.90
48007;DHT22;33771;48.180;11.400;2024-02-16T10:07:01;12.40;99.90
48007;DHT22;33771;48.180;11.400;2024-02-16T10:09:28;12.50;99.90
48007;DHT22;33771;48.180;11.400;2024-02-16T10:11:54;12.70;99.90
48007;DHT22;33771;48.180;11.400;2024-02-16T10:14:20;12.90;99.90
48007;DHT22;33771;48.180;11.400;2024-02-16T10:16:47;13.10;99.90
48007;DHT22;33771;48.180;11.400;2024-02-16T10:19:14;13.20;99.90
48007;DHT22;33771;48.180;11.400;2024-02-16T10:21:43;13.40;99.90
48007;DHT22;33771;48.180;11.400;2024-02-16T10:24:12;13.60;99.90
48007;DHT22;33771;48.180;11.400;2024-02-16T10:26:40;13.70;99.90
48007;DHT22;33771;48.180;11.400;2024-02-16T10:29:08;13.80;99.90
48007;DHT22;33771;48.180;11.400;2024-02-16T10:31:34;13.90;99.90
48007;DHT22;33771;48.180;11.400;2024-02-16T10:34:01;13.90;99.90
48007;DHT22;33771;48.180;11.400;2024-02-16T10:36:32;14.10;99.90
48007;DHT22;33771;48.180;11.400;2024-02-16T10:38:58;14.20;99.90
48007;DHT22;33771;48.180;11.400;2024-02-16T10:41:26;14.30;99.90
48007;DHT22;33771;48.180;11.400;2024-02-16T10:43:56;14.40;99.90
48007;DHT22;33771;48.180;11.400;2024-02-16T10:46:22;14.60;99.90
48007;DHT22;33771;48.180;11.400;2024-02-16T10:48:49;14.70;99.90
48007;DHT22;33771;48.180;11.400;2024-02-16T10:51:17;14.90;99.90
48007;DHT22;33771;48.180;11.400;2024-02-16T10:53:44;15.10;99.90
48007;DHT22;33771;48.180;11.400;2024-02-16T10:56:10;15.20;99.90
48007;DHT22;33771;48.180;11.400;2024-02-16T10:58:36;15.30;99.90
48007;DHT22;33771;48.180;11.400;2024-02-16T11:01:15;15.40;99.90
48007;DHT22;33771;48.180;11.400;2024-02-16T11:03:40;15.60;99.90
48007;DHT22;33771;48.180;11.400;2024-02-16T11:06:15;15.70;99.90
48007;DHT22;33771;48.180;11.400;2024-02-16T11:08:41;15.60;99.90
48007;DHT22;33771;48.180;11.400;2024-02-16T11:11:07;15.70;99.90
48007;DHT22;33771;48.180;11.400;2024-02-16T11:13:37;15.80;99.90
48007;DHT22;33771;48.180;11.400;2024-02-16T11:16:03;15.80;99.90
48007;DHT22;33771;48.180;11.400;2024-02-16T11:18:31;16.00;99.90
48007;DHT22;33771;48.180;11.400;2024-02-16T11:21:01;16.10;99.90
48007;DHT22;33771;48.180;11.400;2024-02-16T11:23:27;16.20;99.90
48007;DHT22;33771;48.180;11.400;2024-02-16T11:25:54;16.30;99.90
48007;DHT22;33771;48.180;11.400;2024-02-16T11:28:20;16.40;99.90
48007;DHT22;33771;48.180;11.400;2024-02-16T11:30:45;16.50;99.90
48007;DHT22;33771;48.180;11.400;2024-02-16T11:33:11;16.60;99.90
48007;DHT22;33771;48.180;11.400;2024-02-16T11:35:36;16.60;99.90
48007;DHT22;33771;48.180;11.400;2024-02-16T11:38:02;16.70;99.90
48007;DHT22;33771;48.180;11.400;2024-02-16T11:40:27;16.80;99.90
48007;DHT22;33771;48.180;11.400;2024-02-16T11:42:59;16.80;99.90
48007;DHT22;33771;48.180;11.400;2024-02-16T11:45:25;16.90;99.90
48007;DHT22;33771;48.180;11.400;2024-02-16T11:47:51;17.00;99.90
48007;DHT22;33771;48.180;11.400;2024-02-16T11:50:17;17.00;99.90
48007;DHT22;33771;48.180;11.400;2024-02-16T11:52:43;16.90;99.90
48007;DHT22;33771;48.180;11.400;2024-02-16T11:55:09;17.00;99.90
48007;DHT22;33771;48.180;11.400;2024-02-16T11:57:35;17.00;99.90
48007;DHT22;33771;48.180;11.400;2024-02-16T12:00:01;17.00;99.90
48007;DHT22;33771;48.180;11.400;2024-02-16T12:02:32;17.00;99.90
48007;DHT22;33771;48.180;11.400;2024-02-16T12:04:58;17.10;99.90
48007;DHT22;33771;48.180;11.400;2024-02-16T12:07:25;17.00;99.90
48007;DHT22;33771;48.180;11.400;2024-02-16T12:09:56;16.90;99.90
48007;DHT22;33771;48.180;11.400;2024-02-16T12:12:21;16.90;99.90
48007;DHT22;33771;48.180;11.400;2024-02-16T12:14:47;16.80;99.90
48007;DHT22;33771;48.180;11.400;2024-02-16T12:17:14;16.70;99.90
48007;DHT22;33771;48.180;11.400;2024-02-16T12:19:43;16.70;99.90
48007;DHT22;33771;48.180;11.400;2024-02-16T12:22:09;16.90;99.90
48007;DHT22;33771;48.180;11.400;2024-02-16T12:24:34;17.00;99.90
48007;DHT22;33771;48.180;11.400;2024-02-16T12:27:00;17.20;99.90
48007;DHT22;33771;48.180;11.400;2024-02-16T12:29:25;17.50;99.90
48007;DHT22;33771;48.180;11.400;2024-02-16T12:31:51;17.70;99.90
48007;DHT22;33771;48.180;11.400;2024-02-16T12:34:16;17.70;99.90
48007;DHT22;33771;48.180;11.400;2024-02-16T12:36:42;17.80;99.90
48007;DHT22;33771;48.180;11.400;2024-02-16T12:39:07;17.90;99.90
48007;DHT22;33771;48.180;11.400;2024-02-16T12:41:34;18.00;99.90
48007;DHT22;33771;48.180;11.400;2024-02-16T12:44:01;18.00;99.90
48007;DHT22;33771;48.180;11.400;2024-02-16T12:46:26;18.10;99.90
48007;DHT22;33771;48.180;11.400;2024-02-16T12:48:53;18.10;99.90
48007;DHT22;33771;48.180;11.400;2024-02-16T12:51:19;18.00;99.90
48007;DHT22;33771;48.180;11.400;2024-02-16T12:53:44;17.90;99.90
48007;DHT22;33771;48.180;11.400;2024-02-16T12:56:10;17.90;99.90
48007;DHT22;33771;48.180;11.400;2024-02-16T12:58:35;17.90;99.90
48007;DHT22;33771;48.180;11.400;2024-02-16T13:01:05;17.80;99.90
48007;DHT22;33771;48.180;11.400;2024-02-16T13:03:34;17.80;99.90
48007;DHT22;33771;48.180;11.400;2024-02-16T13:05:59;17.70;99.90
48007;DHT22;33771;48.180;11.400;2024-02-16T13:08:25;17.60;99.90
48007;DHT22;33771;48.180;11.400;2024-02-16T13:10:51;17.60;99.90
48007;DHT22;33771;48.180;11.400;2024-02-16T13:13:16;17.60;99.90
48007;DHT22;33771;48.180;11.400;2024-02-16T13:15:41;17.60;99.90
48007;DHT22;33771;48.180;11.400;2024-02-16T13:18:07;17.50;99.90
48007;DHT22;33771;48.180;11.400;2024-02-16T13:20:32;17.40;99.90
48007;DHT22;33771;48.180;11.400;2024-02-16T13:23:00;17.20;99.90
48007;DHT22;33771;48.180;11.400;2024-02-16T13:25:26;17.00;99.90
48007;DHT22;33771;48.180;11.400;2024-02-16T13:27:51;16.80;99.90
48007;DHT22;33771;48.180;11.400;2024-02-16T13:30:17;16.70;99.90
48007;DHT22;33771;48.180;11.400;2024-02-16T13:32:42;16.50;99.90
48007;DHT22;33771;48.180;11.400;2024-02-16T13:35:07;16.50;99.90
48007;DHT22;33771;48.180;11.400;2024-02-16T13:37:33;16.50;99.90
48007;DHT22;33771;48.180;11.400;2024-02-16T13:39:58;16.40;99.90
48007;DHT22;33771;48.180;11.400;2024-02-16T13:42:24;16.40;99.90
48007;DHT22;33771;48.180;11.400;2024-02-16T13:44:51;16.30;99.90
48007;DHT22;33771;48.180;11.400;2024-02-16T13:47:17;16.20;99.90
48007;DHT22;33771;48.180;11.400;2024-02-16T13:49:42;16.10;99.90
48007;DHT22;33771;48.180;11.400;2024-02-16T13:52:07;16.10;99.90
48007;DHT22;33771;48.180;11.400;2024-02-16T13:54:34;16.00;99.90
48007;DHT22;33771;48.180;11.400;2024-02-16T13:57:00;16.00;99.90
48007;DHT22;33771;48.180;11.400;2024-02-16T13:59:26;15.90;99.90
48007;DHT22;33771;48.180;11.400;2024-02-16T14:01:51;15.90;99.90
48007;DHT22;33771;48.180;11.400;2024-02-16T14:04:17;15.90;99.90
48007;DHT22;33771;48.180;11.400;2024-02-16T14:06:43;15.80;99.90
48007;DHT22;33771;48.180;11.400;2024-02-16T14:09:09;15.80;99.90
48007;DHT22;33771;48.180;11.400;2024-02-16T14:11:35;15.80;99.90
48007;DHT22;33771;48.180;11.400;2024-02-16T14:14:01;15.80;99.90
48007;DHT22;33771;48.180;11.400;2024-02-16T14:16:27;15.80;99.90
48007;DHT22;33771;48.180;11.400;2024-02-16T14:18:52;15.90;99.90
48007;DHT22;33771;48.180;11.400;2024-02-16T14:21:18;16.00;99.90
48007;DHT22;33771;48.180;11.400;2024-02-16T14:23:43;16.10;99.90
48007;DHT22;33771;48.180;11.400;2024-02-16T14:26:09;16.20;99.90
48007;DHT22;33771;48.180;11.400;2024-02-16T14:28:35;16.30;99.90
48007;DHT22;33771;48.180;11.400;2024-02-16T14:31:00;16.60;99.90
48007;DHT22;33771;48.180;11.400;2024-02-16T14:33:26;16.70;99.90
48007;DHT22;33771;48.180;11.400;2024-02-16T14:35:51;16.80;99.90
48007;DHT22;33771;48.180;11.400;2024-02-16T14:38:17;16.80;99.90
48007;DHT22;33771;48.180;11.400;2024-02-16T14:40:42;16.80;99.90
48007;DHT22;33771;48.180;11.400;2024-02-16T14:43:08;16.80;99.90
48007;DHT22;33771;48.180;11.400;2024-02-16T14:45:33;16.70;99.90
48007;DHT22;33771;48.180;11.400;2024-02-16T14:47:59;16.70;99.90
48007;DHT22;33771;48.180;11.400;2024-02-16T14:50:24;16.70;99.90
48007;DHT22;33771;48.180;11.400;2024-02-16T14:52:50;16.70;99.90
48007;DHT22;33771;48.180;11.400;2024-02-16T14:55:16;16.60;99.90
48007;DHT22;33771;48.180;11.400;2024-02-16T14:57:42;16.50;99.90
48007;DHT22;33771;48.180;11.400;2024-02-16T15:00:08;16.40;99.90
48007;DHT22;33771;48.180;11.400;2024-02-16T15:02:34;16.30;99.90
48007;DHT22;33771;48.180;11.400;2024-02-16T15:04:59;16.10;99.90
48007;DHT22;33771;48.180;11.400;2024-02-16T15:07:25;16.00;99.90
48007;DHT22;33771;48.180;11.400;2024-02-16T15:09:50;15.90;99.90
48007;DHT22;33771;48.180;11.400;2024-02-16T15:12:16;15.80;99.90
48007;DHT22;33771;48.180;11.400;2024-02-16T15:14:47;15.60;99.90
48007;DHT22;33771;48.180;11.400;2024-02-16T15:17:12;15.60;99.90